sensor_id;sensor_type;location;lat;lon;timestamp;temperature;humidity
29255;DHT22;16277;48.890;2.306;2023-03-03T00:01:56;11.50;83.50
29255;DHT22;16277;48.890;2.306;2023-03-03T00:17:13;11.20;83.80
29255;DHT22;16277;48.890;2.306;2023-03-03T00:32:25;11.00;84.70
29255;DHT22;16277;48.890;2.306;2023-03-03T00:47:31;11.10;84.50
29255;DHT22;16277;48.890;2.306;2023-03-03T01:02:40;11.00;84.90
29255;DHT22;16277;48.890;2.306;2023-03-03T01:17:44;10.80;85.80
29255;DHT22;16277;48.890;2.306;2023-03-03T01:32:48;10.50;87.00
29255;DHT22;16277;48.890;2.306;2023-03-03T01:47:57;10.70;85.90
29255;DHT22;16277;48.890;2.306;2023-03-03T02:03:03;10.40;87.40
29255;DHT22;16277;48.890;2.306;2023-03-03T02:18:11;9.80;90.00
29255;DHT22;16277;48.890;2.306;2023-03-03T02:33:16;10.50;87.70
29255;DHT22;16277;48.890;2.306;2023-03-03T02:48:20;10.20;90.10
29255;DHT22;16277;48.890;2.306;2023-03-03T03:03:25;10.30;89.50
29255;DHT22;16277;48.890;2.306;2023-03-03T03:18:30;10.20;90.20
29255;DHT22;16277;48.890;2.306;2023-03-03T03:33:36;9.90;90.60
29255;DHT22;16277;48.890;2.306;2023-03-03T03:48:42;9.70;90.60
29255;DHT22;16277;48.890;2.306;2023-03-03T04:03:49;9.60;90.90
29255;DHT22;16277;48.890;2.306;2023-03-03T04:18:57;9.50;91.50
29255;DHT22;16277;48.890;2.306;2023-03-03T04:34:02;9.70;91.40
29255;DHT22;16277;48.890;2.306;2023-03-03T04:49:06;9.90;91.30
29255;DHT22;16277;48.890;2.306;2023-03-03T05:04:16;10.00;91.20
29255;DHT22;16277;48.890;2.306;2023-03-03T05:19:20;9.80;92.20
29255;DHT22;16277;48.890;2.306;2023-03-03T05:34:25;10.00;92.00
29255;DHT22;16277;48.890;2.306;2023-03-03T05:49:30;10.20;91.80
29255;DHT22;16277;48.890;2.306;2023-03-03T06:04:34;9.80;92.20
29255;DHT22;16277;48.890;2.306;2023-03-03T06:19:38;9.60;92.40
29255;DHT22;16277;48.890;2.306;2023-03-03T06:34:43;9.60;92.80
29255;DHT22;16277;48.890;2.306;2023-03-03T06:49:48;9.90;92.20
29255;DHT22;16277;48.890;2.306;2023-03-03T07:04:54;9.30;93.20
29255;DHT22;16277;48.890;2.306;2023-03-03T07:20:00;9.70;92.80
29255;DHT22;16277;48.890;2.306;2023-03-03T07:35:17;9.10;93.60
29255;DHT22;16277;48.890;2.306;2023-03-03T07:50:25;9.40;92.90
29255;DHT22;16277;48.890;2.306;2023-03-03T08:05:33;9.70;92.90
29255;DHT22;16277;48.890;2.306;2023-03-03T08:20:42;9.30;93.70
29255;DHT22;16277;48.890;2.306;2023-03-03T08:35:48;9.60;92.90
29255;DHT22;16277;48.890;2.306;2023-03-03T08:50:53;9.40;93.30
29255;DHT22;16277;48.890;2.306;2023-03-03T09:05:57;9.60;93.30
29255;DHT22;16277;48.890;2.306;2023-03-03T09:21:05;9.90;92.90
29255;DHT22;16277;48.890;2.306;2023-03-03T09:36:23;9.40;93.30
29255;DHT22;16277;48.890;2.306;2023-03-03T09:51:45;10.10;92.90
29255;DHT22;16277;48.890;2.306;2023-03-03T10:07:00;10.20;91.90
29255;DHT22;16277;48.890;2.306;2023-03-03T10:22:19;10.10;91.60
29255;DHT22;16277;48.890;2.306;2023-03-03T10:37:32;10.00;92.00
29255;DHT22;16277;48.890;2.306;2023-03-03T10:52:43;11.40;90.10
29255;DHT22;16277;48.890;2.306;2023-03-03T11:07:53;11.30;89.00
29255;DHT22;16277;48.890;2.306;2023-03-03T11:23:06;12.20;86.80
29255;DHT22;16277;48.890;2.306;2023-03-03T11:38:25;12.10;87.10
29255;DHT22;16277;48.890;2.306;2023-03-03T11:53:58;12.60;84.60
29255;DHT22;16277;48.890;2.306;2023-03-03T12:09:19;13.40;81.70
29255;DHT22;16277;48.890;2.306;2023-03-03T12:24:38;13.60;81.30
29255;DHT22;16277;48.890;2.306;2023-03-03T12:39:55;12.90;80.70
29255;DHT22;16277;48.890;2.306;2023-03-03T12:55:09;13.30;79.50
29255;DHT22;16277;48.890;2.306;2023-03-03T13:10:19;13.90;76.80
29255;DHT22;16277;48.890;2.306;2023-03-03T13:25:37;13.90;75.60
29255;DHT22;16277;48.890;2.306;2023-03-03T13:40:50;15.10;74.90
29255;DHT22;16277;48.890;2.306;2023-03-03T13:56:06;14.80;74.10
29255;DHT22;16277;48.890;2.306;2023-03-03T14:11:20;15.90;71.70
29255;DHT22;16277;48.890;2.306;2023-03-03T14:26:25;16.50;68.90
29255;DHT22;16277;48.890;2.306;2023-03-03T14:41:39;17.80;64.60
29255;DHT22;16277;48.890;2.306;2023-03-03T14:56:57;18.50;62.30
29255;DHT22;16277;48.890;2.306;2023-03-03T15:12:16;19.60;58.90
29255;DHT22;16277;48.890;2.306;2023-03-03T15:27:24;20.40;57.20
29255;DHT22;16277;48.890;2.306;2023-03-03T15:42:32;20.20;56.90
29255;DHT22;16277;48.890;2.306;2023-03-03T15:57:47;20.50;56.10
29255;DHT22;16277;48.890;2.306;2023-03-03T16:13:13;19.20;60.00
29255;DHT22;16277;48.890;2.306;2023-03-03T16:28:26;18.30;63.10
29255;DHT22;16277;48.890;2.306;2023-03-03T16:43:42;16.20;69.20
29255;DHT22;16277;48.890;2.306;2023-03-03T16:59:02;15.50;70.30
29255;DHT22;16277;48.890;2.306;2023-03-03T17:14:21;14.90;72.10
29255;DHT22;16277;48.890;2.306;2023-03-03T17:29:49;13.80;75.50
29255;DHT22;16277;48.890;2.306;2023-03-03T17:45:01;13.50;76.30
29255;DHT22;16277;48.890;2.306;2023-03-03T18:00:18;13.70;76.00
29255;DHT22;16277;48.890;2.306;2023-03-03T18:15:41;13.50;76.80
29255;DHT22;16277;48.890;2.306;2023-03-03T18:30:55;13.10;78.10
29255;DHT22;16277;48.890;2.306;2023-03-03T18:46:00;13.20;79.10
29255;DHT22;16277;48.890;2.306;2023-03-03T19:01:38;12.60;81.10
29255;DHT22;16277;48.890;2.306;2023-03-03T19:16:45;12.70;80.90
29255;DHT22;16277;48.890;2.306;2023-03-03T19:31:57;12.40;81.90
29255;DHT22;16277;48.890;2.306;2023-03-03T19:47:03;12.40;82.30
29255;DHT22;16277;48.890;2.306;2023-03-03T20:02:26;12.40;82.40
29255;DHT22;16277;48.890;2.306;2023-03-03T20:17:50;12.30;82.80
29255;DHT22;16277;48.890;2.306;2023-03-03T20:33:12;12.40;82.70
29255;DHT22;16277;48.890;2.306;2023-03-03T20:48:31;11.40;84.60
29255;DHT22;16277;48.890;2.306;2023-03-03T21:03:40;11.40;85.90
29255;DHT22;16277;48.890;2.306;2023-03-03T21:18:56;10.90;87.90
29255;DHT22;16277;48.890;2.306;2023-03-03T21:34:01;11.20;87.60
29255;DHT22;16277;48.890;2.306;2023-03-03T21:49:20;11.30;87.40
29255;DHT22;16277;48.890;2.306;2023-03-03T22:04:24;11.20;87.10
29255;DHT22;16277;48.890;2.306;2023-03-03T22:19:29;11.00;88.50
29255;DHT22;16277;48.890;2.306;2023-03-03T22:34:36;11.30;87.30
29255;DHT22;16277;48.890;2.306;2023-03-03T22:49:40;11.30;87.70
29255;DHT22;16277;48.890;2.306;2023-03-03T23:04:45;10.60;89.50
29255;DHT22;16277;48.890;2.306;2023-03-03T23:19:49;10.70;89.70
29255;DHT22;16277;48.890;2.306;2023-03-03T23:34:54;10.60;89.70
29255;DHT22;16277;48.890;2.306;2023-03-03T23:49:59;10.00;91.00
